sensor_id;sensor_type;location;lat;lon;timestamp;P1;durP1;ratioP1;P2;durP2;ratioP2
40252;SDS011;25972;51.854;4.534;2022-12-18T00:01:06;45.80;;;18.97;;
40252;SDS011;25972;51.854;4.534;2022-12-18T00:03:43;45.47;;;16.80;;
40252;SDS011;25972;51.854;4.534;2022-12-18T00:06:10;56.37;;;19.20;;
40252;SDS011;25972;51.854;4.534;2022-12-18T00:08:36;49.77;;;17.60;;
40252;SDS011;25972;51.854;4.534;2022-12-18T00:11:03;45.57;;;17.93;;
40252;SDS011;25972;51.854;4.534;2022-12-18T00:13:30;73.30;;;24.90;;
40252;SDS011;25972;51.854;4.534;2022-12-18T00:16:00;55.77;;;19.77;;
40252;SDS011;25972;51.854;4.534;2022-12-18T00:18:31;38.93;;;13.13;;
40252;SDS011;25972;51.854;4.534;2022-12-18T00:20:58;48.90;;;17.20;;
40252;SDS011;25972;51.854;4.534;2022-12-18T00:23:26;70.07;;;23.97;;
40252;SDS011;25972;51.854;4.534;2022-12-18T00:25:53;61.10;;;22.67;;
40252;SDS011;25972;51.854;4.534;2022-12-18T00:28:19;22.77;;;12.00;;
40252;SDS011;25972;51.854;4.534;2022-12-18T00:30:45;55.00;;;20.80;;
40252;SDS011;25972;51.854;4.534;2022-12-18T00:33:11;30.87;;;13.57;;
40252;SDS011;25972;51.854;4.534;2022-12-18T00:35:38;50.27;;;17.23;;
40252;SDS011;25972;51.854;4.534;2022-12-18T00:38:03;34.77;;;13.63;;
40252;SDS011;25972;51.854;4.534;2022-12-18T00:40:31;50.27;;;17.43;;
40252;SDS011;25972;51.854;4.534;2022-12-18T00:42:57;44.13;;;15.90;;
40252;SDS011;25972;51.854;4.534;2022-12-18T00:45:27;38.73;;;17.17;;
40252;SDS011;25972;51.854;4.534;2022-12-18T00:47:55;39.30;;;15.13;;
40252;SDS011;25972;51.854;4.534;2022-12-18T00:50:22;45.53;;;16.93;;
40252;SDS011;25972;51.854;4.534;2022-12-18T00:52:49;37.63;;;14.43;;
40252;SDS011;25972;51.854;4.534;2022-12-18T00:55:15;54.63;;;18.40;;
40252;SDS011;25972;51.854;4.534;2022-12-18T00:57:42;52.00;;;18.33;;
40252;SDS011;25972;51.854;4.534;2022-12-18T01:00:10;49.90;;;17.20;;
40252;SDS011;25972;51.854;4.534;2022-12-18T01:02:37;49.03;;;18.57;;
40252;SDS011;25972;51.854;4.534;2022-12-18T01:05:05;41.40;;;16.03;;
40252;SDS011;25972;51.854;4.534;2022-12-18T01:07:32;49.20;;;18.73;;
40252;SDS011;25972;51.854;4.534;2022-12-18T01:09:57;46.73;;;18.13;;
40252;SDS011;25972;51.854;4.534;2022-12-18T01:12:25;35.90;;;13.97;;
40252;SDS011;25972;51.854;4.534;2022-12-18T01:14:51;36.43;;;14.53;;
40252;SDS011;25972;51.854;4.534;2022-12-18T01:17:17;66.03;;;20.20;;
40252;SDS011;25972;51.854;4.534;2022-12-18T01:19:43;51.07;;;18.37;;
40252;SDS011;25972;51.854;4.534;2022-12-18T01:22:09;45.30;;;18.10;;
40252;SDS011;25972;51.854;4.534;2022-12-18T01:24:35;62.27;;;20.87;;
40252;SDS011;25972;51.854;4.534;2022-12-18T01:27:01;37.73;;;15.97;;
40252;SDS011;25972;51.854;4.534;2022-12-18T01:29:26;36.60;;;14.33;;
40252;SDS011;25972;51.854;4.534;2022-12-18T01:31:54;59.50;;;20.57;;
40252;SDS011;25972;51.854;4.534;2022-12-18T01:34:21;33.10;;;13.43;;
40252;SDS011;25972;51.854;4.534;2022-12-18T01:36:51;20.00;;;10.47;;
40252;SDS011;25972;51.854;4.534;2022-12-18T01:39:17;43.60;;;18.43;;
40252;SDS011;25972;51.854;4.534;2022-12-18T01:41:43;52.40;;;18.50;;
40252;SDS011;25972;51.854;4.534;2022-12-18T01:49:52;44.47;;;17.10;;
40252;SDS011;25972;51.854;4.534;2022-12-18T01:52:19;20.60;;;8.97;;
40252;SDS011;25972;51.854;4.534;2022-12-18T01:54:46;41.63;;;16.83;;
40252;SDS011;25972;51.854;4.534;2022-12-18T01:57:15;52.63;;;18.13;;
40252;SDS011;25972;51.854;4.534;2022-12-18T01:59:41;38.73;;;15.40;;
40252;SDS011;25972;51.854;4.534;2022-12-18T02:02:10;39.83;;;16.57;;
40252;SDS011;25972;51.854;4.534;2022-12-18T02:04:37;45.47;;;17.07;;
40252;SDS011;25972;51.854;4.534;2022-12-18T02:10:13;53.27;;;18.83;;
40252;SDS011;25972;51.854;4.534;2022-12-18T02:12:52;61.43;;;18.50;;
40252;SDS011;25972;51.854;4.534;2022-12-18T02:15:32;41.50;;;17.03;;
40252;SDS011;25972;51.854;4.534;2022-12-18T02:20:56;44.73;;;18.47;;
40252;SDS011;25972;51.854;4.534;2022-12-18T02:26:20;45.80;;;18.27;;
40252;SDS011;25972;51.854;4.534;2022-12-18T02:29:02;37.33;;;15.43;;
40252;SDS011;25972;51.854;4.534;2022-12-18T02:31:36;22.70;;;10.23;;
40252;SDS011;25972;51.854;4.534;2022-12-18T02:34:07;39.93;;;16.43;;
40252;SDS011;25972;51.854;4.534;2022-12-18T02:36:38;29.70;;;14.53;;
40252;SDS011;25972;51.854;4.534;2022-12-18T02:39:07;60.33;;;20.60;;
40252;SDS011;25972;51.854;4.534;2022-12-18T02:41:35;75.37;;;24.50;;
40252;SDS011;25972;51.854;4.534;2022-12-18T02:44:06;48.43;;;20.23;;
40252;SDS011;25972;51.854;4.534;2022-12-18T02:46:35;38.10;;;15.33;;
40252;SDS011;25972;51.854;4.534;2022-12-18T02:52:17;54.67;;;20.97;;
40252;SDS011;25972;51.854;4.534;2022-12-18T02:57:49;50.20;;;18.13;;
40252;SDS011;25972;51.854;4.534;2022-12-18T03:00:28;39.00;;;17.50;;
40252;SDS011;25972;51.854;4.534;2022-12-18T03:05:48;47.83;;;19.70;;
40252;SDS011;25972;51.854;4.534;2022-12-18T03:08:21;46.93;;;18.57;;
40252;SDS011;25972;51.854;4.534;2022-12-18T03:11:13;67.10;;;24.57;;
40252;SDS011;25972;51.854;4.534;2022-12-18T03:13:50;80.27;;;29.50;;
40252;SDS011;25972;51.854;4.534;2022-12-18T03:16:25;67.17;;;22.47;;
40252;SDS011;25972;51.854;4.534;2022-12-18T03:18:54;25.77;;;12.47;;
40252;SDS011;25972;51.854;4.534;2022-12-18T03:21:32;84.30;;;26.65;;
40252;SDS011;25972;51.854;4.534;2022-12-18T03:24:03;57.40;;;20.13;;
40252;SDS011;25972;51.854;4.534;2022-12-18T03:26:33;66.17;;;22.87;;
40252;SDS011;25972;51.854;4.534;2022-12-18T03:29:04;68.20;;;22.63;;
40252;SDS011;25972;51.854;4.534;2022-12-18T03:31:35;52.30;;;19.20;;
40252;SDS011;25972;51.854;4.534;2022-12-18T03:34:05;55.17;;;19.33;;
40252;SDS011;25972;51.854;4.534;2022-12-18T03:36:42;56.77;;;19.87;;
40252;SDS011;25972;51.854;4.534;2022-12-18T03:39:08;78.33;;;25.80;;
40252;SDS011;25972;51.854;4.534;2022-12-18T03:44:42;78.50;;;23.65;;
40252;SDS011;25972;51.854;4.534;2022-12-18T03:47:27;56.87;;;23.50;;
40252;SDS011;25972;51.854;4.534;2022-12-18T03:50:15;59.37;;;22.80;;
40252;SDS011;25972;51.854;4.534;2022-12-18T03:55:34;47.30;;;20.27;;
40252;SDS011;25972;51.854;4.534;2022-12-18T03:58:03;36.27;;;16.40;;
40252;SDS011;25972;51.854;4.534;2022-12-18T04:00:41;31.43;;;12.97;;
40252;SDS011;25972;51.854;4.534;2022-12-18T04:03:09;35.03;;;14.40;;
40252;SDS011;25972;51.854;4.534;2022-12-18T04:05:44;36.20;;;15.07;;
40252;SDS011;25972;51.854;4.534;2022-12-18T04:08:13;31.83;;;15.37;;
40252;SDS011;25972;51.854;4.534;2022-12-18T04:10:42;38.27;;;15.87;;
40252;SDS011;25972;51.854;4.534;2022-12-18T04:13:09;37.80;;;16.83;;
40252;SDS011;25972;51.854;4.534;2022-12-18T04:15:35;56.83;;;20.70;;
40252;SDS011;25972;51.854;4.534;2022-12-18T04:18:04;33.83;;;15.50;;
40252;SDS011;25972;51.854;4.534;2022-12-18T04:20:37;46.70;;;17.40;;
40252;SDS011;25972;51.854;4.534;2022-12-18T04:23:03;39.70;;;15.53;;
40252;SDS011;25972;51.854;4.534;2022-12-18T04:25:28;49.10;;;17.00;;
40252;SDS011;25972;51.854;4.534;2022-12-18T04:28:04;43.73;;;16.20;;
40252;SDS011;25972;51.854;4.534;2022-12-18T04:30:32;34.83;;;14.47;;
40252;SDS011;25972;51.854;4.534;2022-12-18T04:32:58;36.27;;;14.03;;
40252;SDS011;25972;51.854;4.534;2022-12-18T04:35:25;35.53;;;12.93;;
40252;SDS011;25972;51.854;4.534;2022-12-18T04:37:51;18.83;;;9.30;;
40252;SDS011;25972;51.854;4.534;2022-12-18T04:40:17;36.60;;;13.93;;
40252;SDS011;25972;51.854;4.534;2022-12-18T04:42:45;32.93;;;14.87;;
40252;SDS011;25972;51.854;4.534;2022-12-18T04:45:11;42.67;;;14.77;;
40252;SDS011;25972;51.854;4.534;2022-12-18T04:47:37;35.90;;;13.97;;
40252;SDS011;25972;51.854;4.534;2022-12-18T04:50:03;34.73;;;13.50;;
40252;SDS011;25972;51.854;4.534;2022-12-18T04:52:29;27.73;;;12.43;;
40252;SDS011;25972;51.854;4.534;2022-12-18T04:54:55;34.30;;;13.53;;
40252;SDS011;25972;51.854;4.534;2022-12-18T04:57:21;26.73;;;11.90;;
40252;SDS011;25972;51.854;4.534;2022-12-18T04:59:50;28.57;;;11.97;;
40252;SDS011;25972;51.854;4.534;2022-12-18T05:02:16;30.63;;;12.67;;
40252;SDS011;25972;51.854;4.534;2022-12-18T05:04:42;31.67;;;12.47;;
40252;SDS011;25972;51.854;4.534;2022-12-18T05:07:08;31.03;;;13.50;;
40252;SDS011;25972;51.854;4.534;2022-12-18T05:09:34;35.10;;;14.43;;
40252;SDS011;25972;51.854;4.534;2022-12-18T05:12:00;26.63;;;11.53;;
40252;SDS011;25972;51.854;4.534;2022-12-18T05:14:26;27.27;;;12.17;;
40252;SDS011;25972;51.854;4.534;2022-12-18T05:16:54;30.37;;;12.70;;
40252;SDS011;25972;51.854;4.534;2022-12-18T05:19:20;35.60;;;14.80;;
40252;SDS011;25972;51.854;4.534;2022-12-18T05:21:46;22.93;;;12.27;;
40252;SDS011;25972;51.854;4.534;2022-12-18T05:24:12;37.43;;;13.77;;
40252;SDS011;25972;51.854;4.534;2022-12-18T05:26:38;28.60;;;12.47;;
40252;SDS011;25972;51.854;4.534;2022-12-18T05:29:04;26.43;;;12.27;;
40252;SDS011;25972;51.854;4.534;2022-12-18T05:31:30;34.73;;;12.80;;
40252;SDS011;25972;51.854;4.534;2022-12-18T05:33:56;28.63;;;11.67;;
40252;SDS011;25972;51.854;4.534;2022-12-18T05:36:22;32.37;;;13.27;;
40252;SDS011;25972;51.854;4.534;2022-12-18T05:38:49;33.67;;;13.87;;
40252;SDS011;25972;51.854;4.534;2022-12-18T05:41:15;35.97;;;15.97;;
40252;SDS011;25972;51.854;4.534;2022-12-18T05:43:41;26.57;;;12.73;;
40252;SDS011;25972;51.854;4.534;2022-12-18T05:46:10;28.50;;;11.97;;
40252;SDS011;25972;51.854;4.534;2022-12-18T05:48:38;20.23;;;10.67;;
40252;SDS011;25972;51.854;4.534;2022-12-18T05:51:05;21.33;;;10.60;;
40252;SDS011;25972;51.854;4.534;2022-12-18T05:53:33;27.37;;;11.87;;
40252;SDS011;25972;51.854;4.534;2022-12-18T05:56:01;22.33;;;10.70;;
40252;SDS011;25972;51.854;4.534;2022-12-18T05:58:29;18.07;;;10.60;;
40252;SDS011;25972;51.854;4.534;2022-12-18T06:00:55;28.10;;;13.67;;
40252;SDS011;25972;51.854;4.534;2022-12-18T06:03:21;35.17;;;16.37;;
40252;SDS011;25972;51.854;4.534;2022-12-18T06:05:47;57.03;;;21.80;;
40252;SDS011;25972;51.854;4.534;2022-12-18T06:08:14;39.13;;;15.37;;
40252;SDS011;25972;51.854;4.534;2022-12-18T06:10:40;45.90;;;18.63;;
40252;SDS011;25972;51.854;4.534;2022-12-18T06:13:07;35.83;;;16.40;;
40252;SDS011;25972;51.854;4.534;2022-12-18T06:15:35;35.73;;;14.67;;
40252;SDS011;25972;51.854;4.534;2022-12-18T06:18:02;31.73;;;13.63;;
40252;SDS011;25972;51.854;4.534;2022-12-18T06:20:28;32.40;;;15.47;;
40252;SDS011;25972;51.854;4.534;2022-12-18T06:22:54;34.20;;;16.10;;
40252;SDS011;25972;51.854;4.534;2022-12-18T06:25:20;35.80;;;15.63;;
40252;SDS011;25972;51.854;4.534;2022-12-18T06:27:47;29.13;;;12.30;;
40252;SDS011;25972;51.854;4.534;2022-12-18T06:30:13;37.07;;;15.90;;
40252;SDS011;25972;51.854;4.534;2022-12-18T06:32:39;33.33;;;16.87;;
40252;SDS011;25972;51.854;4.534;2022-12-18T06:35:05;41.03;;;15.90;;
40252;SDS011;25972;51.854;4.534;2022-12-18T06:37:31;25.63;;;12.50;;
40252;SDS011;25972;51.854;4.534;2022-12-18T06:39:57;7.30;;;5.57;;
40252;SDS011;25972;51.854;4.534;2022-12-18T06:42:23;19.07;;;10.70;;
40252;SDS011;25972;51.854;4.534;2022-12-18T06:44:50;31.27;;;13.67;;
40252;SDS011;25972;51.854;4.534;2022-12-18T06:47:15;15.83;;;8.33;;
40252;SDS011;25972;51.854;4.534;2022-12-18T06:49:41;36.03;;;13.37;;
40252;SDS011;25972;51.854;4.534;2022-12-18T06:52:08;32.83;;;14.23;;
40252;SDS011;25972;51.854;4.534;2022-12-18T06:54:34;34.50;;;16.23;;
40252;SDS011;25972;51.854;4.534;2022-12-18T06:57:00;31.73;;;12.93;;
40252;SDS011;25972;51.854;4.534;2022-12-18T06:59:25;30.27;;;12.73;;
40252;SDS011;25972;51.854;4.534;2022-12-18T07:01:51;22.07;;;11.50;;
40252;SDS011;25972;51.854;4.534;2022-12-18T07:04:17;24.93;;;12.23;;
40252;SDS011;25972;51.854;4.534;2022-12-18T07:06:43;24.83;;;10.13;;
40252;SDS011;25972;51.854;4.534;2022-12-18T07:09:09;24.37;;;11.13;;
40252;SDS011;25972;51.854;4.534;2022-12-18T07:11:35;32.60;;;13.93;;
40252;SDS011;25972;51.854;4.534;2022-12-18T07:14:01;28.50;;;12.50;;
40252;SDS011;25972;51.854;4.534;2022-12-18T07:16:27;20.13;;;9.90;;
40252;SDS011;25972;51.854;4.534;2022-12-18T07:18:56;21.57;;;10.73;;
40252;SDS011;25972;51.854;4.534;2022-12-18T07:21:22;34.70;;;15.20;;
40252;SDS011;25972;51.854;4.534;2022-12-18T07:23:49;38.83;;;17.90;;
40252;SDS011;25972;51.854;4.534;2022-12-18T07:26:18;31.20;;;14.50;;
40252;SDS011;25972;51.854;4.534;2022-12-18T07:28:45;30.40;;;13.57;;
40252;SDS011;25972;51.854;4.534;2022-12-18T07:31:13;22.23;;;11.73;;
40252;SDS011;25972;51.854;4.534;2022-12-18T07:33:42;27.57;;;13.17;;
40252;SDS011;25972;51.854;4.534;2022-12-18T07:36:08;38.73;;;15.90;;
40252;SDS011;25972;51.854;4.534;2022-12-18T07:38:36;23.87;;;10.83;;
40252;SDS011;25972;51.854;4.534;2022-12-18T07:41:03;29.37;;;13.90;;
40252;SDS011;25972;51.854;4.534;2022-12-18T07:43:31;17.07;;;10.23;;
40252;SDS011;25972;51.854;4.534;2022-12-18T07:45:57;14.20;;;8.67;;
40252;SDS011;25972;51.854;4.534;2022-12-18T07:48:23;26.77;;;12.97;;
40252;SDS011;25972;51.854;4.534;2022-12-18T07:50:49;20.33;;;10.10;;
40252;SDS011;25972;51.854;4.534;2022-12-18T07:53:14;18.73;;;10.10;;
40252;SDS011;25972;51.854;4.534;2022-12-18T07:55:41;38.63;;;17.83;;
40252;SDS011;25972;51.854;4.534;2022-12-18T07:58:07;33.03;;;15.70;;
40252;SDS011;25972;51.854;4.534;2022-12-18T08:00:34;26.33;;;13.83;;
40252;SDS011;25972;51.854;4.534;2022-12-18T08:03:00;28.03;;;14.47;;
40252;SDS011;25972;51.854;4.534;2022-12-18T08:05:27;20.50;;;10.37;;
40252;SDS011;25972;51.854;4.534;2022-12-18T08:07:54;23.10;;;12.20;;
40252;SDS011;25972;51.854;4.534;2022-12-18T08:10:20;22.43;;;11.17;;
40252;SDS011;25972;51.854;4.534;2022-12-18T08:12:48;17.67;;;9.67;;
40252;SDS011;25972;51.854;4.534;2022-12-18T08:15:15;27.83;;;13.67;;
40252;SDS011;25972;51.854;4.534;2022-12-18T08:17:41;11.83;;;7.60;;
40252;SDS011;25972;51.854;4.534;2022-12-18T08:20:07;26.57;;;10.27;;
40252;SDS011;25972;51.854;4.534;2022-12-18T08:22:34;30.27;;;12.40;;
40252;SDS011;25972;51.854;4.534;2022-12-18T08:25:04;36.73;;;16.97;;
40252;SDS011;25972;51.854;4.534;2022-12-18T08:27:30;23.47;;;10.77;;
40252;SDS011;25972;51.854;4.534;2022-12-18T08:29:56;22.73;;;11.63;;
40252;SDS011;25972;51.854;4.534;2022-12-18T08:32:22;20.57;;;11.10;;
40252;SDS011;25972;51.854;4.534;2022-12-18T08:34:49;26.67;;;12.83;;
40252;SDS011;25972;51.854;4.534;2022-12-18T08:37:15;31.73;;;14.27;;
40252;SDS011;25972;51.854;4.534;2022-12-18T08:39:41;17.87;;;10.33;;
40252;SDS011;25972;51.854;4.534;2022-12-18T08:42:07;30.87;;;12.73;;
40252;SDS011;25972;51.854;4.534;2022-12-18T08:44:52;19.00;;;10.20;;
40252;SDS011;25972;51.854;4.534;2022-12-18T08:47:17;25.80;;;12.33;;
40252;SDS011;25972;51.854;4.534;2022-12-18T08:49:43;35.23;;;16.27;;
40252;SDS011;25972;51.854;4.534;2022-12-18T08:52:09;24.10;;;12.73;;
40252;SDS011;25972;51.854;4.534;2022-12-18T08:54:36;19.97;;;11.67;;
40252;SDS011;25972;51.854;4.534;2022-12-18T08:57:02;18.23;;;11.83;;
40252;SDS011;25972;51.854;4.534;2022-12-18T08:59:27;23.03;;;12.60;;
40252;SDS011;25972;51.854;4.534;2022-12-18T09:01:54;24.57;;;13.10;;
40252;SDS011;25972;51.854;4.534;2022-12-18T09:04:20;30.07;;;13.53;;
40252;SDS011;25972;51.854;4.534;2022-12-18T09:06:46;20.77;;;11.00;;
40252;SDS011;25972;51.854;4.534;2022-12-18T09:09:12;10.63;;;6.30;;
40252;SDS011;25972;51.854;4.534;2022-12-18T09:11:39;32.17;;;14.90;;
40252;SDS011;25972;51.854;4.534;2022-12-18T09:14:05;35.90;;;18.67;;
40252;SDS011;25972;51.854;4.534;2022-12-18T09:16:31;33.83;;;16.43;;
40252;SDS011;25972;51.854;4.534;2022-12-18T09:19:00;22.20;;;10.17;;
40252;SDS011;25972;51.854;4.534;2022-12-18T09:21:28;43.97;;;21.13;;
40252;SDS011;25972;51.854;4.534;2022-12-18T09:23:56;37.97;;;18.07;;
40252;SDS011;25972;51.854;4.534;2022-12-18T09:26:22;35.43;;;17.10;;
40252;SDS011;25972;51.854;4.534;2022-12-18T09:28:50;31.10;;;15.07;;
40252;SDS011;25972;51.854;4.534;2022-12-18T09:31:17;25.47;;;14.73;;
40252;SDS011;25972;51.854;4.534;2022-12-18T09:33:45;35.67;;;16.73;;
40252;SDS011;25972;51.854;4.534;2022-12-18T09:36:12;28.07;;;12.40;;
40252;SDS011;25972;51.854;4.534;2022-12-18T09:38:40;29.80;;;14.33;;
40252;SDS011;25972;51.854;4.534;2022-12-18T09:44:04;37.10;;;16.20;;
40252;SDS011;25972;51.854;4.534;2022-12-18T09:46:57;28.17;;;14.30;;
40252;SDS011;25972;51.854;4.534;2022-12-18T09:49:26;21.60;;;11.50;;
40252;SDS011;25972;51.854;4.534;2022-12-18T09:51:55;33.40;;;15.60;;
40252;SDS011;25972;51.854;4.534;2022-12-18T09:54:40;17.83;;;11.83;;
40252;SDS011;25972;51.854;4.534;2022-12-18T09:57:26;30.83;;;13.93;;
40252;SDS011;25972;51.854;4.534;2022-12-18T10:00:02;31.53;;;16.93;;
40252;SDS011;25972;51.854;4.534;2022-12-18T10:02:49;21.92;;;13.45;;
40252;SDS011;25972;51.854;4.534;2022-12-18T10:08:11;31.93;;;16.40;;
40252;SDS011;25972;51.854;4.534;2022-12-18T10:10:59;22.57;;;11.70;;
40252;SDS011;25972;51.854;4.534;2022-12-18T10:13:38;29.50;;;14.10;;
40252;SDS011;25972;51.854;4.534;2022-12-18T10:16:19;5.77;;;5.30;;
40252;SDS011;25972;51.854;4.534;2022-12-18T10:21:37;24.40;;;13.67;;
40252;SDS011;25972;51.854;4.534;2022-12-18T10:29:54;18.10;;;11.07;;
40252;SDS011;25972;51.854;4.534;2022-12-18T10:32:21;30.17;;;16.47;;
40252;SDS011;25972;51.854;4.534;2022-12-18T10:34:50;28.10;;;15.40;;
40252;SDS011;25972;51.854;4.534;2022-12-18T10:37:19;30.87;;;16.87;;
40252;SDS011;25972;51.854;4.534;2022-12-18T10:40:04;22.80;;;12.50;;
40252;SDS011;25972;51.854;4.534;2022-12-18T10:42:31;20.70;;;10.40;;
40252;SDS011;25972;51.854;4.534;2022-12-18T10:45:08;23.30;;;14.77;;
40252;SDS011;25972;51.854;4.534;2022-12-18T10:47:41;26.37;;;15.20;;
40252;SDS011;25972;51.854;4.534;2022-12-18T10:50:26;18.40;;;9.37;;
40252;SDS011;25972;51.854;4.534;2022-12-18T10:55:23;28.50;;;16.17;;
40252;SDS011;25972;51.854;4.534;2022-12-18T10:58:12;20.90;;;12.03;;
40252;SDS011;25972;51.854;4.534;2022-12-18T11:03:42;22.60;;;13.43;;
40252;SDS011;25972;51.854;4.534;2022-12-18T11:06:10;11.33;;;7.90;;
40252;SDS011;25972;51.854;4.534;2022-12-18T11:08:37;31.90;;;17.10;;
40252;SDS011;25972;51.854;4.534;2022-12-18T11:11:04;29.87;;;18.60;;
40252;SDS011;25972;51.854;4.534;2022-12-18T11:17:03;19.00;;;11.23;;
40252;SDS011;25972;51.854;4.534;2022-12-18T11:19:33;8.20;;;7.40;;
40252;SDS011;25972;51.854;4.534;2022-12-18T11:22:18;25.63;;;11.20;;
40252;SDS011;25972;51.854;4.534;2022-12-18T11:24:59;27.60;;;15.43;;
40252;SDS011;25972;51.854;4.534;2022-12-18T11:27:27;26.27;;;14.67;;
40252;SDS011;25972;51.854;4.534;2022-12-18T11:30:07;36.57;;;20.83;;
40252;SDS011;25972;51.854;4.534;2022-12-18T11:32:55;27.77;;;15.90;;
40252;SDS011;25972;51.854;4.534;2022-12-18T11:35:37;30.47;;;17.67;;
40252;SDS011;25972;51.854;4.534;2022-12-18T11:38:20;20.33;;;13.10;;
40252;SDS011;25972;51.854;4.534;2022-12-18T11:41:05;22.50;;;13.93;;
40252;SDS011;25972;51.854;4.534;2022-12-18T11:43:58;25.97;;;16.27;;
40252;SDS011;25972;51.854;4.534;2022-12-18T11:46:32;14.27;;;10.70;;
40252;SDS011;25972;51.854;4.534;2022-12-18T11:49:06;36.50;;;20.17;;
40252;SDS011;25972;51.854;4.534;2022-12-18T11:54:34;29.30;;;15.27;;
40252;SDS011;25972;51.854;4.534;2022-12-18T11:59:56;19.00;;;11.87;;
40252;SDS011;25972;51.854;4.534;2022-12-18T12:13:27;26.20;;;16.53;;
40252;SDS011;25972;51.854;4.534;2022-12-18T12:16:03;27.27;;;16.03;;
40252;SDS011;25972;51.854;4.534;2022-12-18T12:21:39;30.17;;;19.95;;
40252;SDS011;25972;51.854;4.534;2022-12-18T12:29:35;27.63;;;16.37;;
40252;SDS011;25972;51.854;4.534;2022-12-18T12:40:29;26.67;;;17.70;;
40252;SDS011;25972;51.854;4.534;2022-12-18T12:43:05;22.97;;;14.43;;
40252;SDS011;25972;51.854;4.534;2022-12-18T12:45:57;24.60;;;15.63;;
40252;SDS011;25972;51.854;4.534;2022-12-18T12:48:36;27.50;;;15.83;;
40252;SDS011;25972;51.854;4.534;2022-12-18T12:51:06;25.77;;;16.77;;
40252;SDS011;25972;51.854;4.534;2022-12-18T12:53:45;27.97;;;16.53;;
40252;SDS011;25972;51.854;4.534;2022-12-18T12:56:12;18.67;;;13.07;;
40252;SDS011;25972;51.854;4.534;2022-12-18T12:58:45;27.23;;;16.43;;
40252;SDS011;25972;51.854;4.534;2022-12-18T13:01:32;27.33;;;18.23;;
40252;SDS011;25972;51.854;4.534;2022-12-18T13:07:04;26.87;;;16.80;;
40252;SDS011;25972;51.854;4.534;2022-12-18T13:12:56;21.27;;;14.03;;
40252;SDS011;25972;51.854;4.534;2022-12-18T13:15:39;35.40;;;17.80;;
40252;SDS011;25972;51.854;4.534;2022-12-18T13:25:50;23.20;;;13.67;;
40252;SDS011;25972;51.854;4.534;2022-12-18T13:28:18;20.23;;;13.67;;
40252;SDS011;25972;51.854;4.534;2022-12-18T13:30:47;18.00;;;12.77;;
40252;SDS011;25972;51.854;4.534;2022-12-18T13:41:02;26.07;;;15.47;;
40252;SDS011;25972;51.854;4.534;2022-12-18T13:51:39;27.27;;;15.60;;
40252;SDS011;25972;51.854;4.534;2022-12-18T13:57:35;15.53;;;12.07;;
40252;SDS011;25972;51.854;4.534;2022-12-18T14:02:47;15.30;;;11.30;;
40252;SDS011;25972;51.854;4.534;2022-12-18T14:05:23;26.30;;;17.57;;
40252;SDS011;25972;51.854;4.534;2022-12-18T14:07:51;26.60;;;17.57;;
40252;SDS011;25972;51.854;4.534;2022-12-18T14:10:18;28.17;;;16.67;;
40252;SDS011;25972;51.854;4.534;2022-12-18T14:12:46;17.03;;;13.30;;
40252;SDS011;25972;51.854;4.534;2022-12-18T14:20:20;17.90;;;13.97;;
40252;SDS011;25972;51.854;4.534;2022-12-18T14:22:49;23.80;;;16.43;;
40252;SDS011;25972;51.854;4.534;2022-12-18T14:25:17;25.33;;;17.07;;
40252;SDS011;25972;51.854;4.534;2022-12-18T14:27:47;25.83;;;16.40;;
40252;SDS011;25972;51.854;4.534;2022-12-18T14:30:30;27.30;;;16.23;;
40252;SDS011;25972;51.854;4.534;2022-12-18T14:35:37;20.07;;;14.43;;
40252;SDS011;25972;51.854;4.534;2022-12-18T14:40:53;17.63;;;12.67;;
40252;SDS011;25972;51.854;4.534;2022-12-18T14:43:33;16.27;;;12.57;;
40252;SDS011;25972;51.854;4.534;2022-12-18T14:46:01;31.20;;;19.40;;
40252;SDS011;25972;51.854;4.534;2022-12-18T14:48:36;20.87;;;13.43;;
40252;SDS011;25972;51.854;4.534;2022-12-18T14:51:15;24.00;;;16.40;;
40252;SDS011;25972;51.854;4.534;2022-12-18T14:54:02;21.07;;;14.27;;
40252;SDS011;25972;51.854;4.534;2022-12-18T14:56:35;22.17;;;15.53;;
40252;SDS011;25972;51.854;4.534;2022-12-18T14:59:13;26.57;;;16.73;;
40252;SDS011;25972;51.854;4.534;2022-12-18T15:01:45;28.13;;;16.83;;
40252;SDS011;25972;51.854;4.534;2022-12-18T15:09:37;25.50;;;15.93;;
40252;SDS011;25972;51.854;4.534;2022-12-18T15:12:04;26.60;;;17.50;;
40252;SDS011;25972;51.854;4.534;2022-12-18T15:17:12;27.13;;;18.93;;
40252;SDS011;25972;51.854;4.534;2022-12-18T15:19:44;27.40;;;16.43;;
40252;SDS011;25972;51.854;4.534;2022-12-18T15:22:22;27.57;;;18.07;;
40252;SDS011;25972;51.854;4.534;2022-12-18T15:24:54;16.97;;;13.20;;
40252;SDS011;25972;51.854;4.534;2022-12-18T15:27:25;24.97;;;17.57;;
40252;SDS011;25972;51.854;4.534;2022-12-18T15:32:33;23.43;;;14.97;;
40252;SDS011;25972;51.854;4.534;2022-12-18T15:37:33;20.07;;;14.53;;
40252;SDS011;25972;51.854;4.534;2022-12-18T15:39:59;15.60;;;13.10;;
40252;SDS011;25972;51.854;4.534;2022-12-18T15:42:28;28.87;;;17.47;;
40252;SDS011;25972;51.854;4.534;2022-12-18T15:45:13;30.63;;;17.60;;
40252;SDS011;25972;51.854;4.534;2022-12-18T15:47:39;29.27;;;18.07;;
40252;SDS011;25972;51.854;4.534;2022-12-18T15:50:07;25.07;;;16.07;;
40252;SDS011;25972;51.854;4.534;2022-12-18T15:52:37;31.07;;;19.07;;
40252;SDS011;25972;51.854;4.534;2022-12-18T15:55:10;29.42;;;16.85;;
40252;SDS011;25972;51.854;4.534;2022-12-18T15:57:57;23.17;;;15.57;;
40252;SDS011;25972;51.854;4.534;2022-12-18T16:00:23;29.23;;;17.23;;
40252;SDS011;25972;51.854;4.534;2022-12-18T16:02:49;27.70;;;17.83;;
40252;SDS011;25972;51.854;4.534;2022-12-18T16:05:15;23.53;;;15.17;;
40252;SDS011;25972;51.854;4.534;2022-12-18T16:07:44;24.00;;;17.03;;
40252;SDS011;25972;51.854;4.534;2022-12-18T16:10:11;24.37;;;16.03;;
40252;SDS011;25972;51.854;4.534;2022-12-18T16:12:37;33.87;;;18.73;;
40252;SDS011;25972;51.854;4.534;2022-12-18T16:15:04;25.90;;;16.17;;
40252;SDS011;25972;51.854;4.534;2022-12-18T16:17:31;15.60;;;12.47;;
40252;SDS011;25972;51.854;4.534;2022-12-18T16:19:57;23.77;;;14.83;;
40252;SDS011;25972;51.854;4.534;2022-12-18T16:22:26;22.57;;;14.87;;
40252;SDS011;25972;51.854;4.534;2022-12-18T16:24:54;26.37;;;17.90;;
40252;SDS011;25972;51.854;4.534;2022-12-18T16:27:21;23.83;;;15.97;;
40252;SDS011;25972;51.854;4.534;2022-12-18T16:29:47;28.67;;;17.53;;
40252;SDS011;25972;51.854;4.534;2022-12-18T16:32:18;26.83;;;17.67;;
40252;SDS011;25972;51.854;4.534;2022-12-18T16:34:45;27.53;;;16.73;;
40252;SDS011;25972;51.854;4.534;2022-12-18T16:37:12;32.57;;;19.47;;
40252;SDS011;25972;51.854;4.534;2022-12-18T16:39:40;30.33;;;18.77;;
40252;SDS011;25972;51.854;4.534;2022-12-18T16:42:12;30.60;;;18.73;;
40252;SDS011;25972;51.854;4.534;2022-12-18T16:44:42;17.53;;;12.80;;
40252;SDS011;25972;51.854;4.534;2022-12-18T16:47:08;27.63;;;17.87;;
40252;SDS011;25972;51.854;4.534;2022-12-18T16:49:34;32.73;;;18.33;;
40252;SDS011;25972;51.854;4.534;2022-12-18T16:52:00;37.77;;;20.00;;
40252;SDS011;25972;51.854;4.534;2022-12-18T16:54:25;28.87;;;18.43;;
40252;SDS011;25972;51.854;4.534;2022-12-18T16:56:54;29.40;;;17.63;;
40252;SDS011;25972;51.854;4.534;2022-12-18T16:59:21;30.20;;;18.80;;
40252;SDS011;25972;51.854;4.534;2022-12-18T17:01:47;32.03;;;18.60;;